sensor_id;sensor_type;location;lat;lon;timestamp;P1;durP1;ratioP1;P2;durP2;ratioP2
20984;SDS011;10651;47.552;7.606;2023-12-22T06:28:01;15.55;;;4.47;;
20984;SDS011;10651;47.552;7.606;2023-12-22T06:30:27;15.43;;;4.25;;
20984;SDS011;10651;47.552;7.606;2023-12-22T06:32:52;16.85;;;4.53;;
20984;SDS011;10651;47.552;7.606;2023-12-22T06:35:18;17.83;;;4.93;;
20984;SDS011;10651;47.552;7.606;2023-12-22T06:37:48;15.05;;;3.88;;
20984;SDS011;10651;47.552;7.606;2023-12-22T06:40:14;9.77;;;3.65;;
20984;SDS011;10651;47.552;7.606;2023-12-22T06:42:40;8.05;;;2.90;;
20984;SDS011;10651;47.552;7.606;2023-12-22T06:45:06;9.43;;;2.80;;
20984;SDS011;10651;47.552;7.606;2023-12-22T06:47:32;10.98;;;2.60;;
20984;SDS011;10651;47.552;7.606;2023-12-22T06:49:58;9.73;;;3.00;;
20984;SDS011;10651;47.552;7.606;2023-12-22T06:52:24;7.57;;;2.85;;
20984;SDS011;10651;47.552;7.606;2023-12-22T06:54:49;8.68;;;2.88;;
20984;SDS011;10651;47.552;7.606;2023-12-22T06:57:15;9.68;;;3.38;;
20984;SDS011;10651;47.552;7.606;2023-12-22T06:59:41;11.52;;;3.30;;
20984;SDS011;10651;47.552;7.606;2023-12-22T07:02:08;12.80;;;3.85;;
20984;SDS011;10651;47.552;7.606;2023-12-22T07:04:33;14.68;;;3.55;;
20984;SDS011;10651;47.552;7.606;2023-12-22T07:06:59;9.60;;;4.13;;
20984;SDS011;10651;47.552;7.606;2023-12-22T07:11:53;17.55;;;4.05;;
20984;SDS011;10651;47.552;7.606;2023-12-22T07:14:19;16.38;;;4.93;;
20984;SDS011;10651;47.552;7.606;2023-12-22T07:16:45;9.38;;;3.97;;
20984;SDS011;10651;47.552;7.606;2023-12-22T07:19:10;12.30;;;4.20;;
20984;SDS011;10651;47.552;7.606;2023-12-22T07:21:39;11.38;;;4.38;;
20984;SDS011;10651;47.552;7.606;2023-12-22T07:24:05;14.50;;;4.97;;
20984;SDS011;10651;47.552;7.606;2023-12-22T07:26:31;15.75;;;4.97;;
20984;SDS011;10651;47.552;7.606;2023-12-22T07:28:57;16.77;;;4.25;;
20984;SDS011;10651;47.552;7.606;2023-12-22T07:31:23;16.27;;;4.25;;
20984;SDS011;10651;47.552;7.606;2023-12-22T07:33:49;19.40;;;5.00;;
20984;SDS011;10651;47.552;7.606;2023-12-22T07:36:15;14.85;;;4.53;;
20984;SDS011;10651;47.552;7.606;2023-12-22T07:38:40;20.70;;;4.35;;
20984;SDS011;10651;47.552;7.606;2023-12-22T07:41:06;16.35;;;5.05;;
20984;SDS011;10651;47.552;7.606;2023-12-22T07:43:32;12.50;;;4.40;;
20984;SDS011;10651;47.552;7.606;2023-12-22T07:45:58;15.25;;;4.78;;
20984;SDS011;10651;47.552;7.606;2023-12-22T07:48:24;16.30;;;4.72;;
20984;SDS011;10651;47.552;7.606;2023-12-22T07:50:50;17.15;;;5.22;;
20984;SDS011;10651;47.552;7.606;2023-12-22T07:53:16;11.60;;;4.10;;
20984;SDS011;10651;47.552;7.606;2023-12-22T07:55:42;14.68;;;5.05;;
20984;SDS011;10651;47.552;7.606;2023-12-22T07:58:09;14.27;;;4.43;;
20984;SDS011;10651;47.552;7.606;2023-12-22T08:00:34;16.02;;;4.72;;
20984;SDS011;10651;47.552;7.606;2023-12-22T08:03:01;15.25;;;4.35;;
20984;SDS011;10651;47.552;7.606;2023-12-22T08:05:27;21.05;;;4.25;;
20984;SDS011;10651;47.552;7.606;2023-12-22T08:07:53;15.32;;;4.43;;
20984;SDS011;10651;47.552;7.606;2023-12-22T08:10:19;10.07;;;4.65;;
20984;SDS011;10651;47.552;7.606;2023-12-22T08:12:44;23.05;;;5.80;;
20984;SDS011;10651;47.552;7.606;2023-12-22T08:15:10;17.52;;;4.78;;
20984;SDS011;10651;47.552;7.606;2023-12-22T08:17:36;15.73;;;4.28;;
20984;SDS011;10651;47.552;7.606;2023-12-22T08:20:03;15.50;;;4.32;;
20984;SDS011;10651;47.552;7.606;2023-12-22T08:22:29;14.73;;;4.50;;
20984;SDS011;10651;47.552;7.606;2023-12-22T08:24:55;17.10;;;4.60;;
20984;SDS011;10651;47.552;7.606;2023-12-22T08:27:20;16.23;;;4.90;;
20984;SDS011;10651;47.552;7.606;2023-12-22T08:29:46;14.23;;;3.75;;
20984;SDS011;10651;47.552;7.606;2023-12-22T08:32:12;14.32;;;4.18;;
20984;SDS011;10651;47.552;7.606;2023-12-22T08:34:38;15.93;;;4.05;;
20984;SDS011;10651;47.552;7.606;2023-12-22T08:37:03;20.25;;;4.30;;
20984;SDS011;10651;47.552;7.606;2023-12-22T08:39:29;13.55;;;4.15;;
20984;SDS011;10651;47.552;7.606;2023-12-22T08:41:54;13.82;;;4.35;;
20984;SDS011;10651;47.552;7.606;2023-12-22T08:44:20;16.17;;;4.60;;
20984;SDS011;10651;47.552;7.606;2023-12-22T08:46:46;10.73;;;3.92;;
20984;SDS011;10651;47.552;7.606;2023-12-22T08:49:11;22.15;;;4.78;;
20984;SDS011;10651;47.552;7.606;2023-12-22T08:51:37;19.40;;;5.10;;
20984;SDS011;10651;47.552;7.606;2023-12-22T08:54:03;17.88;;;5.10;;
20984;SDS011;10651;47.552;7.606;2023-12-22T08:56:31;13.52;;;4.38;;
20984;SDS011;10651;47.552;7.606;2023-12-22T08:58:57;13.60;;;4.38;;
20984;SDS011;10651;47.552;7.606;2023-12-22T09:01:25;14.50;;;4.60;;
20984;SDS011;10651;47.552;7.606;2023-12-22T09:03:51;14.63;;;4.05;;
20984;SDS011;10651;47.552;7.606;2023-12-22T09:06:18;14.63;;;3.85;;
20984;SDS011;10651;47.552;7.606;2023-12-22T09:08:45;12.32;;;4.13;;
20984;SDS011;10651;47.552;7.606;2023-12-22T09:11:11;12.70;;;3.97;;
20984;SDS011;10651;47.552;7.606;2023-12-22T09:13:39;15.52;;;4.30;;
20984;SDS011;10651;47.552;7.606;2023-12-22T09:16:06;14.13;;;4.65;;
20984;SDS011;10651;47.552;7.606;2023-12-22T09:18:32;15.40;;;4.15;;
20984;SDS011;10651;47.552;7.606;2023-12-22T09:20:58;12.15;;;4.65;;
20984;SDS011;10651;47.552;7.606;2023-12-22T09:23:24;17.65;;;5.40;;
20984;SDS011;10651;47.552;7.606;2023-12-22T09:25:50;12.27;;;3.88;;
20984;SDS011;10651;47.552;7.606;2023-12-22T09:28:16;13.10;;;4.57;;
20984;SDS011;10651;47.552;7.606;2023-12-22T09:30:41;19.35;;;4.45;;
20984;SDS011;10651;47.552;7.606;2023-12-22T09:33:08;12.43;;;5.07;;
20984;SDS011;10651;47.552;7.606;2023-12-22T09:35:34;16.08;;;4.40;;
20984;SDS011;10651;47.552;7.606;2023-12-22T09:38:00;14.02;;;4.55;;
20984;SDS011;10651;47.552;7.606;2023-12-22T09:40:26;11.25;;;3.75;;
20984;SDS011;10651;47.552;7.606;2023-12-22T09:42:55;16.63;;;5.75;;
20984;SDS011;10651;47.552;7.606;2023-12-22T09:45:23;14.18;;;5.05;;
20984;SDS011;10651;47.552;7.606;2023-12-22T09:47:49;17.77;;;4.95;;
20984;SDS011;10651;47.552;7.606;2023-12-22T09:50:17;15.63;;;4.95;;
20984;SDS011;10651;47.552;7.606;2023-12-22T09:52:44;17.63;;;4.57;;
20984;SDS011;10651;47.552;7.606;2023-12-22T09:55:11;14.05;;;4.78;;
20984;SDS011;10651;47.552;7.606;2023-12-22T09:57:38;13.15;;;4.80;;
20984;SDS011;10651;47.552;7.606;2023-12-22T10:00:06;13.88;;;4.15;;
20984;SDS011;10651;47.552;7.606;2023-12-22T10:02:34;10.10;;;3.53;;
20984;SDS011;10651;47.552;7.606;2023-12-22T10:05:01;11.75;;;3.63;;
20984;SDS011;10651;47.552;7.606;2023-12-22T10:07:28;12.82;;;4.00;;
20984;SDS011;10651;47.552;7.606;2023-12-22T10:09:55;11.35;;;3.72;;
20984;SDS011;10651;47.552;7.606;2023-12-22T10:12:22;12.35;;;4.97;;
20984;SDS011;10651;47.552;7.606;2023-12-22T10:14:49;12.63;;;3.83;;
20984;SDS011;10651;47.552;7.606;2023-12-22T10:17:16;11.88;;;4.03;;
20984;SDS011;10651;47.552;7.606;2023-12-22T10:19:42;8.93;;;3.20;;
20984;SDS011;10651;47.552;7.606;2023-12-22T10:22:08;11.70;;;4.03;;
20984;SDS011;10651;47.552;7.606;2023-12-22T10:24:41;8.32;;;3.75;;
20984;SDS011;10651;47.552;7.606;2023-12-22T10:27:12;5.57;;;3.50;;
20984;SDS011;10651;47.552;7.606;2023-12-22T10:29:39;15.48;;;3.78;;
20984;SDS011;10651;47.552;7.606;2023-12-22T10:32:05;12.90;;;4.00;;
20984;SDS011;10651;47.552;7.606;2023-12-22T10:34:32;7.45;;;3.38;;
20984;SDS011;10651;47.552;7.606;2023-12-22T10:37:01;7.90;;;3.90;;
20984;SDS011;10651;47.552;7.606;2023-12-22T10:39:30;8.07;;;3.47;;
20984;SDS011;10651;47.552;7.606;2023-12-22T10:41:57;4.68;;;3.10;;
20984;SDS011;10651;47.552;7.606;2023-12-22T10:44:23;7.80;;;2.90;;
20984;SDS011;10651;47.552;7.606;2023-12-22T10:46:53;4.97;;;2.63;;
20984;SDS011;10651;47.552;7.606;2023-12-22T10:49:20;5.38;;;3.08;;
20984;SDS011;10651;47.552;7.606;2023-12-22T10:51:46;10.45;;;2.97;;
20984;SDS011;10651;47.552;7.606;2023-12-22T10:54:12;6.78;;;3.17;;
20984;SDS011;10651;47.552;7.606;2023-12-22T10:56:38;3.80;;;2.70;;
20984;SDS011;10651;47.552;7.606;2023-12-22T10:59:04;6.32;;;2.97;;
20984;SDS011;10651;47.552;7.606;2023-12-22T11:01:32;7.85;;;3.78;;
20984;SDS011;10651;47.552;7.606;2023-12-22T11:04:07;5.60;;;3.05;;
20984;SDS011;10651;47.552;7.606;2023-12-22T11:06:37;3.38;;;2.90;;
20984;SDS011;10651;47.552;7.606;2023-12-22T11:09:07;4.78;;;2.90;;
20984;SDS011;10651;47.552;7.606;2023-12-22T11:11:37;3.75;;;2.40;;
20984;SDS011;10651;47.552;7.606;2023-12-22T11:14:03;8.50;;;2.58;;
20984;SDS011;10651;47.552;7.606;2023-12-22T11:16:30;3.50;;;2.63;;
20984;SDS011;10651;47.552;7.606;2023-12-22T11:19:01;3.85;;;2.60;;
20984;SDS011;10651;47.552;7.606;2023-12-22T11:21:28;2.30;;;2.10;;
20984;SDS011;10651;47.552;7.606;2023-12-22T11:23:54;3.13;;;2.28;;
20984;SDS011;10651;47.552;7.606;2023-12-22T11:26:21;2.50;;;2.28;;
20984;SDS011;10651;47.552;7.606;2023-12-22T11:28:48;4.53;;;2.20;;
20984;SDS011;10651;47.552;7.606;2023-12-22T11:31:16;6.82;;;2.35;;
20984;SDS011;10651;47.552;7.606;2023-12-22T11:33:46;2.20;;;2.10;;
20984;SDS011;10651;47.552;7.606;2023-12-22T11:36:14;2.85;;;2.65;;
20984;SDS011;10651;47.552;7.606;2023-12-22T11:38:41;2.67;;;2.47;;
20984;SDS011;10651;47.552;7.606;2023-12-22T11:41:09;2.10;;;1.98;;
20984;SDS011;10651;47.552;7.606;2023-12-22T11:43:42;2.05;;;1.95;;
20984;SDS011;10651;47.552;7.606;2023-12-22T11:46:09;3.38;;;2.03;;
20984;SDS011;10651;47.552;7.606;2023-12-22T11:48:35;1.92;;;1.83;;
20984;SDS011;10651;47.552;7.606;2023-12-22T11:51:14;3.42;;;2.00;;
20984;SDS011;10651;47.552;7.606;2023-12-22T11:53:40;2.38;;;2.28;;
20984;SDS011;10651;47.552;7.606;2023-12-22T11:56:07;5.05;;;3.67;;
20984;SDS011;10651;47.552;7.606;2023-12-22T11:58:41;1.90;;;1.80;;
20984;SDS011;10651;47.552;7.606;2023-12-22T12:01:08;2.00;;;1.90;;
20984;SDS011;10651;47.552;7.606;2023-12-22T12:03:36;1.83;;;1.73;;
20984;SDS011;10651;47.552;7.606;2023-12-22T12:06:49;2.00;;;1.90;;
20984;SDS011;10651;47.552;7.606;2023-12-22T12:08:50;2.10;;;2.00;;
20984;SDS011;10651;47.552;7.606;2023-12-22T12:11:16;1.90;;;1.80;;
20984;SDS011;10651;47.552;7.606;2023-12-22T12:13:43;1.92;;;1.83;;
20984;SDS011;10651;47.552;7.606;2023-12-22T12:16:13;2.30;;;2.10;;
20984;SDS011;10651;47.552;7.606;2023-12-22T12:18:40;1.92;;;1.83;;
20984;SDS011;10651;47.552;7.606;2023-12-22T12:21:07;2.05;;;1.95;;
20984;SDS011;10651;47.552;7.606;2023-12-22T12:23:34;1.90;;;1.80;;
20984;SDS011;10651;47.552;7.606;2023-12-22T12:26:01;1.90;;;1.80;;
20984;SDS011;10651;47.552;7.606;2023-12-22T12:28:31;1.83;;;1.73;;
20984;SDS011;10651;47.552;7.606;2023-12-22T12:30:57;2.20;;;2.10;;
20984;SDS011;10651;47.552;7.606;2023-12-22T12:33:25;1.83;;;1.73;;
20984;SDS011;10651;47.552;7.606;2023-12-22T12:35:52;1.70;;;1.60;;
20984;SDS011;10651;47.552;7.606;2023-12-22T12:39:06;1.75;;;1.65;;
20984;SDS011;10651;47.552;7.606;2023-12-22T12:41:17;1.92;;;1.83;;
20984;SDS011;10651;47.552;7.606;2023-12-22T12:43:56;1.52;;;1.52;;
20984;SDS011;10651;47.552;7.606;2023-12-22T12:46:23;1.88;;;1.77;;
20984;SDS011;10651;47.552;7.606;2023-12-22T12:49:09;2.00;;;1.90;;
20984;SDS011;10651;47.552;7.606;2023-12-22T12:51:42;2.10;;;2.00;;
20984;SDS011;10651;47.552;7.606;2023-12-22T12:54:10;1.90;;;1.80;;
20984;SDS011;10651;47.552;7.606;2023-12-22T12:56:38;1.70;;;1.60;;
20984;SDS011;10651;47.552;7.606;2023-12-22T12:59:08;2.20;;;2.10;;
20984;SDS011;10651;47.552;7.606;2023-12-22T13:01:38;1.85;;;1.75;;
20984;SDS011;10651;47.552;7.606;2023-12-22T13:04:08;2.15;;;1.80;;
20984;SDS011;10651;47.552;7.606;2023-12-22T13:06:34;1.65;;;1.55;;
20984;SDS011;10651;47.552;7.606;2023-12-22T13:09:00;1.98;;;1.88;;
20984;SDS011;10651;47.552;7.606;2023-12-22T13:11:26;2.08;;;1.98;;
20984;SDS011;10651;47.552;7.606;2023-12-22T13:13:56;1.98;;;1.88;;
20984;SDS011;10651;47.552;7.606;2023-12-22T13:16:22;1.88;;;1.77;;
20984;SDS011;10651;47.552;7.606;2023-12-22T13:18:54;1.80;;;1.70;;
20984;SDS011;10651;47.552;7.606;2023-12-22T13:21:21;2.08;;;1.98;;
20984;SDS011;10651;47.552;7.606;2023-12-22T13:23:47;1.73;;;1.63;;
20984;SDS011;10651;47.552;7.606;2023-12-22T13:26:32;2.08;;;1.98;;
20984;SDS011;10651;47.552;7.606;2023-12-22T13:28:58;1.73;;;1.63;;
20984;SDS011;10651;47.552;7.606;2023-12-22T13:31:25;1.83;;;1.73;;
20984;SDS011;10651;47.552;7.606;2023-12-22T13:33:51;2.45;;;1.67;;
20984;SDS011;10651;47.552;7.606;2023-12-22T13:36:17;1.85;;;1.75;;
20984;SDS011;10651;47.552;7.606;2023-12-22T13:38:46;1.80;;;1.70;;
20984;SDS011;10651;47.552;7.606;2023-12-22T13:41:13;1.88;;;1.77;;
20984;SDS011;10651;47.552;7.606;2023-12-22T13:43:40;2.08;;;1.85;;
20984;SDS011;10651;47.552;7.606;2023-12-22T13:46:06;2.00;;;1.90;;
20984;SDS011;10651;47.552;7.606;2023-12-22T13:48:34;2.00;;;1.90;;
20984;SDS011;10651;47.552;7.606;2023-12-22T13:51:01;2.35;;;2.15;;
20984;SDS011;10651;47.552;7.606;2023-12-22T13:53:46;1.77;;;1.67;;
20984;SDS011;10651;47.552;7.606;2023-12-22T13:56:13;1.48;;;1.48;;
20984;SDS011;10651;47.552;7.606;2023-12-22T13:58:45;2.25;;;1.77;;
20984;SDS011;10651;47.552;7.606;2023-12-22T14:01:15;1.83;;;1.73;;
20984;SDS011;10651;47.552;7.606;2023-12-22T14:03:43;1.77;;;1.67;;
20984;SDS011;10651;47.552;7.606;2023-12-22T14:06:11;1.98;;;1.88;;
20984;SDS011;10651;47.552;7.606;2023-12-22T14:08:40;1.70;;;1.60;;
20984;SDS011;10651;47.552;7.606;2023-12-22T14:11:06;1.67;;;1.58;;
20984;SDS011;10651;47.552;7.606;2023-12-22T14:13:33;3.10;;;1.70;;
20984;SDS011;10651;47.552;7.606;2023-12-22T14:16:00;1.70;;;1.60;;
20984;SDS011;10651;47.552;7.606;2023-12-22T14:18:26;1.90;;;1.73;;
20984;SDS011;10651;47.552;7.606;2023-12-22T14:20:52;1.60;;;1.50;;
20984;SDS011;10651;47.552;7.606;2023-12-22T14:23:17;1.67;;;1.58;;
20984;SDS011;10651;47.552;7.606;2023-12-22T14:25:43;1.70;;;1.60;;
20984;SDS011;10651;47.552;7.606;2023-12-22T14:28:09;1.40;;;1.40;;
20984;SDS011;10651;47.552;7.606;2023-12-22T14:30:34;5.45;;;1.98;;
20984;SDS011;10651;47.552;7.606;2023-12-22T14:33:00;1.58;;;1.50;;
20984;SDS011;10651;47.552;7.606;2023-12-22T14:35:26;1.88;;;1.77;;
20984;SDS011;10651;47.552;7.606;2023-12-22T14:37:51;1.70;;;1.60;;
20984;SDS011;10651;47.552;7.606;2023-12-22T14:40:17;1.90;;;1.80;;
20984;SDS011;10651;47.552;7.606;2023-12-22T14:42:43;1.70;;;1.60;;
20984;SDS011;10651;47.552;7.606;2023-12-22T14:45:09;1.88;;;1.77;;
20984;SDS011;10651;47.552;7.606;2023-12-22T14:47:34;1.70;;;1.65;;
20984;SDS011;10651;47.552;7.606;2023-12-22T14:50:00;1.60;;;1.50;;
20984;SDS011;10651;47.552;7.606;2023-12-22T14:52:29;1.67;;;1.58;;
20984;SDS011;10651;47.552;7.606;2023-12-22T14:54:57;2.10;;;2.00;;
20984;SDS011;10651;47.552;7.606;2023-12-22T14:57:23;2.25;;;1.90;;
20984;SDS011;10651;47.552;7.606;2023-12-22T14:59:49;1.75;;;1.58;;
20984;SDS011;10651;47.552;7.606;2023-12-22T15:02:14;2.10;;;2.00;;
20984;SDS011;10651;47.552;7.606;2023-12-22T15:04:40;1.90;;;1.80;;
20984;SDS011;10651;47.552;7.606;2023-12-22T15:07:07;2.20;;;1.85;;
20984;SDS011;10651;47.552;7.606;2023-12-22T15:09:32;1.90;;;1.80;;
20984;SDS011;10651;47.552;7.606;2023-12-22T15:11:59;5.05;;;1.90;;
20984;SDS011;10651;47.552;7.606;2023-12-22T15:14:25;1.67;;;1.58;;
20984;SDS011;10651;47.552;7.606;2023-12-22T15:16:51;1.80;;;1.60;;
20984;SDS011;10651;47.552;7.606;2023-12-22T15:19:17;1.75;;;1.65;;
20984;SDS011;10651;47.552;7.606;2023-12-22T15:21:43;2.00;;;1.90;;
20984;SDS011;10651;47.552;7.606;2023-12-22T15:24:09;1.80;;;1.70;;
20984;SDS011;10651;47.552;7.606;2023-12-22T15:26:35;1.70;;;1.60;;
20984;SDS011;10651;47.552;7.606;2023-12-22T15:29:02;1.83;;;1.65;;
20984;SDS011;10651;47.552;7.606;2023-12-22T15:31:28;1.70;;;1.60;;
20984;SDS011;10651;47.552;7.606;2023-12-22T15:33:55;1.90;;;1.80;;
20984;SDS011;10651;47.552;7.606;2023-12-22T15:36:21;1.70;;;1.60;;
20984;SDS011;10651;47.552;7.606;2023-12-22T15:38:47;1.75;;;1.63;;
20984;SDS011;10651;47.552;7.606;2023-12-22T15:41:13;3.28;;;1.83;;
20984;SDS011;10651;47.552;7.606;2023-12-22T15:43:39;2.05;;;1.50;;
20984;SDS011;10651;47.552;7.606;2023-12-22T15:46:08;1.70;;;1.60;;
20984;SDS011;10651;47.552;7.606;2023-12-22T15:48:34;1.70;;;1.60;;
20984;SDS011;10651;47.552;7.606;2023-12-22T15:51:04;1.70;;;1.60;;
20984;SDS011;10651;47.552;7.606;2023-12-22T15:53:31;1.98;;;1.88;;
20984;SDS011;10651;47.552;7.606;2023-12-22T15:55:57;1.95;;;1.85;;
20984;SDS011;10651;47.552;7.606;2023-12-22T15:58:23;1.80;;;1.70;;
20984;SDS011;10651;47.552;7.606;2023-12-22T16:00:48;1.77;;;1.67;;
20984;SDS011;10651;47.552;7.606;2023-12-22T16:03:14;2.08;;;1.98;;
20984;SDS011;10651;47.552;7.606;2023-12-22T16:05:40;2.00;;;1.90;;
20984;SDS011;10651;47.552;7.606;2023-12-22T16:08:06;1.70;;;1.60;;
20984;SDS011;10651;47.552;7.606;2023-12-22T16:10:31;1.90;;;1.80;;
20984;SDS011;10651;47.552;7.606;2023-12-22T16:12:57;1.90;;;1.80;;
20984;SDS011;10651;47.552;7.606;2023-12-22T16:15:22;3.00;;;2.10;;
20984;SDS011;10651;47.552;7.606;2023-12-22T16:17:48;2.00;;;1.90;;
20984;SDS011;10651;47.552;7.606;2023-12-22T16:20:15;1.70;;;1.60;;
20984;SDS011;10651;47.552;7.606;2023-12-22T16:26:24;1.70;;;1.60;;
20984;SDS011;10651;47.552;7.606;2023-12-22T16:28:50;3.42;;;1.90;;
20984;SDS011;10651;47.552;7.606;2023-12-22T16:31:16;2.60;;;1.30;;
20984;SDS011;10651;47.552;7.606;2023-12-22T16:33:45;1.52;;;1.42;;
20984;SDS011;10651;47.552;7.606;2023-12-22T16:38:59;1.60;;;1.50;;
20984;SDS011;10651;47.552;7.606;2023-12-22T16:41:27;3.40;;;1.40;;
20984;SDS011;10651;47.552;7.606;2023-12-22T16:43:52;1.75;;;1.65;;
20984;SDS011;10651;47.552;7.606;2023-12-22T16:46:19;1.60;;;1.50;;
20984;SDS011;10651;47.552;7.606;2023-12-22T16:48:45;1.88;;;1.70;;
20984;SDS011;10651;47.552;7.606;2023-12-22T16:51:11;1.73;;;1.63;;
20984;SDS011;10651;47.552;7.606;2023-12-22T16:53:37;2.35;;;2.03;;
20984;SDS011;10651;47.552;7.606;2023-12-22T16:56:03;2.90;;;1.73;;
20984;SDS011;10651;47.552;7.606;2023-12-22T16:58:30;2.35;;;2.10;;
20984;SDS011;10651;47.552;7.606;2023-12-22T17:00:56;2.35;;;2.08;;
20984;SDS011;10651;47.552;7.606;2023-12-22T17:03:21;2.05;;;1.95;;
20984;SDS011;10651;47.552;7.606;2023-12-22T17:05:47;2.20;;;2.00;;
20984;SDS011;10651;47.552;7.606;2023-12-22T17:08:13;4.70;;;2.22;;
20984;SDS011;10651;47.552;7.606;2023-12-22T17:10:40;2.30;;;2.00;;
20984;SDS011;10651;47.552;7.606;2023-12-22T17:13:09;2.10;;;1.90;;
20984;SDS011;10651;47.552;7.606;2023-12-22T17:15:35;2.80;;;1.98;;
20984;SDS011;10651;47.552;7.606;2023-12-22T17:18:01;2.03;;;1.92;;
20984;SDS011;10651;47.552;7.606;2023-12-22T17:20:29;1.80;;;1.70;;
20984;SDS011;10651;47.552;7.606;2023-12-22T17:22:56;2.20;;;2.00;;
20984;SDS011;10651;47.552;7.606;2023-12-22T17:25:22;1.87;;;1.77;;
20984;SDS011;10651;47.552;7.606;2023-12-22T17:27:47;2.38;;;2.05;;
20984;SDS011;10651;47.552;7.606;2023-12-22T17:30:13;2.20;;;2.03;;
20984;SDS011;10651;47.552;7.606;2023-12-22T17:32:42;2.75;;;2.55;;
20984;SDS011;10651;47.552;7.606;2023-12-22T17:35:08;2.13;;;2.03;;
20984;SDS011;10651;47.552;7.606;2023-12-22T17:37:34;4.55;;;2.00;;
20984;SDS011;10651;47.552;7.606;2023-12-22T17:39:59;4.05;;;2.20;;
20984;SDS011;10651;47.552;7.606;2023-12-22T17:42:25;2.08;;;1.98;;
20984;SDS011;10651;47.552;7.606;2023-12-22T17:44:51;2.22;;;2.05;;
20984;SDS011;10651;47.552;7.606;2023-12-22T17:47:16;2.83;;;2.20;;
20984;SDS011;10651;47.552;7.606;2023-12-22T17:49:42;3.95;;;2.20;;
20984;SDS011;10651;47.552;7.606;2023-12-22T17:52:07;3.88;;;2.50;;
20984;SDS011;10651;47.552;7.606;2023-12-22T17:54:33;2.05;;;1.95;;
20984;SDS011;10651;47.552;7.606;2023-12-22T17:56:59;2.55;;;2.35;;
20984;SDS011;10651;47.552;7.606;2023-12-22T17:59:29;2.47;;;2.15;;
20984;SDS011;10651;47.552;7.606;2023-12-22T18:01:55;2.45;;;2.20;;
20984;SDS011;10651;47.552;7.606;2023-12-22T18:04:23;3.95;;;1.85;;
20984;SDS011;10651;47.552;7.606;2023-12-22T18:06:49;2.97;;;2.30;;
20984;SDS011;10651;47.552;7.606;2023-12-22T18:09:16;2.30;;;2.10;;
20984;SDS011;10651;47.552;7.606;2023-12-22T18:11:42;3.35;;;1.92;;
20984;SDS011;10651;47.552;7.606;2023-12-22T18:14:08;3.95;;;2.38;;
20984;SDS011;10651;47.552;7.606;2023-12-22T18:16:40;2.15;;;2.05;;
20984;SDS011;10651;47.552;7.606;2023-12-22T18:19:07;3.50;;;2.10;;
20984;SDS011;10651;47.552;7.606;2023-12-22T18:21:33;2.20;;;2.00;;
20984;SDS011;10651;47.552;7.606;2023-12-22T18:23:59;2.13;;;2.00;;
20984;SDS011;10651;47.552;7.606;2023-12-22T18:26:25;2.53;;;2.17;;
20984;SDS011;10651;47.552;7.606;2023-12-22T18:28:50;3.45;;;2.15;;
20984;SDS011;10651;47.552;7.606;2023-12-22T18:31:16;3.30;;;2.88;;
20984;SDS011;10651;47.552;7.606;2023-12-22T18:33:42;3.05;;;2.50;;
20984;SDS011;10651;47.552;7.606;2023-12-22T18:36:07;4.10;;;2.38;;
20984;SDS011;10651;47.552;7.606;2023-12-22T18:38:33;3.28;;;2.53;;
20984;SDS011;10651;47.552;7.606;2023-12-22T18:40:59;2.55;;;2.08;;
20984;SDS011;10651;47.552;7.606;2023-12-22T18:43:25;4.25;;;2.65;;
20984;SDS011;10651;47.552;7.606;2023-12-22T18:45:50;3.40;;;2.28;;
20984;SDS011;10651;47.552;7.606;2023-12-22T18:48:16;3.97;;;2.65;;
20984;SDS011;10651;47.552;7.606;2023-12-22T18:50:42;2.85;;;2.13;;
20984;SDS011;10651;47.552;7.606;2023-12-22T18:53:08;4.18;;;2.35;;
20984;SDS011;10651;47.552;7.606;2023-12-22T18:55:35;2.85;;;2.65;;
20984;SDS011;10651;47.552;7.606;2023-12-22T18:58:00;6.30;;;3.35;;
20984;SDS011;10651;47.552;7.606;2023-12-22T19:00:28;4.25;;;2.80;;
20984;SDS011;10651;47.552;7.606;2023-12-22T19:05:39;4.68;;;2.75;;
20984;SDS011;10651;47.552;7.606;2023-12-22T19:08:08;4.30;;;2.30;;
20984;SDS011;10651;47.552;7.606;2023-12-22T19:10:37;2.33;;;2.13;;
20984;SDS011;10651;47.552;7.606;2023-12-22T19:13:02;7.85;;;2.78;;
20984;SDS011;10651;47.552;7.606;2023-12-22T19:15:35;3.50;;;2.20;;
20984;SDS011;10651;47.552;7.606;2023-12-22T19:18:11;3.28;;;2.40;;
20984;SDS011;10651;47.552;7.606;2023-12-22T19:20:37;4.72;;;2.80;;
20984;SDS011;10651;47.552;7.606;2023-12-22T19:23:06;2.90;;;2.00;;
20984;SDS011;10651;47.552;7.606;2023-12-22T19:25:34;10.88;;;2.50;;
20984;SDS011;10651;47.552;7.606;2023-12-22T19:28:00;3.00;;;2.28;;
20984;SDS011;10651;47.552;7.606;2023-12-22T19:30:27;4.32;;;2.70;;
20984;SDS011;10651;47.552;7.606;2023-12-22T19:33:01;2.25;;;2.15;;
20984;SDS011;10651;47.552;7.606;2023-12-22T19:35:27;4.95;;;2.60;;
20984;SDS011;10651;47.552;7.606;2023-12-22T19:37:53;7.43;;;3.20;;
20984;SDS011;10651;47.552;7.606;2023-12-22T19:40:19;3.97;;;2.80;;
20984;SDS011;10651;47.552;7.606;2023-12-22T19:42:45;2.42;;;2.22;;
20984;SDS011;10651;47.552;7.606;2023-12-22T19:45:11;4.65;;;2.45;;
20984;SDS011;10651;47.552;7.606;2023-12-22T19:47:40;3.33;;;2.45;;
20984;SDS011;10651;47.552;7.606;2023-12-22T19:50:06;2.42;;;2.22;;
20984;SDS011;10651;47.552;7.606;2023-12-22T19:52:32;3.90;;;2.55;;
20984;SDS011;10651;47.552;7.606;2023-12-22T19:55:02;2.35;;;2.15;;
20984;SDS011;10651;47.552;7.606;2023-12-22T19:57:29;4.95;;;2.60;;
20984;SDS011;10651;47.552;7.606;2023-12-22T19:59:55;2.45;;;2.25;;
20984;SDS011;10651;47.552;7.606;2023-12-22T20:02:21;2.60;;;2.08;;
20984;SDS011;10651;47.552;7.606;2023-12-22T20:04:47;5.20;;;2.40;;
20984;SDS011;10651;47.552;7.606;2023-12-22T20:07:12;2.00;;;1.90;;
20984;SDS011;10651;47.552;7.606;2023-12-22T20:09:38;2.70;;;2.50;;
20984;SDS011;10651;47.552;7.606;2023-12-22T20:12:07;3.90;;;2.22;;
20984;SDS011;10651;47.552;7.606;2023-12-22T20:14:33;5.85;;;2.45;;
20984;SDS011;10651;47.552;7.606;2023-12-22T20:17:01;5.28;;;2.78;;
20984;SDS011;10651;47.552;7.606;2023-12-22T20:19:29;2.70;;;2.42;;
20984;SDS011;10651;47.552;7.606;2023-12-22T20:21:54;4.32;;;2.50;;
20984;SDS011;10651;47.552;7.606;2023-12-22T20:24:20;3.92;;;2.28;;
20984;SDS011;10651;47.552;7.606;2023-12-22T20:26:46;10.52;;;2.72;;
20984;SDS011;10651;47.552;7.606;2023-12-22T20:29:12;3.60;;;2.55;;
20984;SDS011;10651;47.552;7.606;2023-12-22T20:31:43;4.28;;;2.40;;
20984;SDS011;10651;47.552;7.606;2023-12-22T20:34:08;4.85;;;3.05;;
20984;SDS011;10651;47.552;7.606;2023-12-22T20:36:34;5.43;;;2.75;;
20984;SDS011;10651;47.552;7.606;2023-12-22T20:39:00;4.15;;;2.65;;
20984;SDS011;10651;47.552;7.606;2023-12-22T20:41:25;5.43;;;2.63;;
20984;SDS011;10651;47.552;7.606;2023-12-22T20:43:51;3.80;;;2.40;;
20984;SDS011;10651;47.552;7.606;2023-12-22T20:46:17;5.70;;;2.20;;
20984;SDS011;10651;47.552;7.606;2023-12-22T20:48:42;3.25;;;2.60;;
20984;SDS011;10651;47.552;7.606;2023-12-22T20:51:08;4.43;;;2.70;;
20984;SDS011;10651;47.552;7.606;2023-12-22T20:53:34;3.80;;;2.25;;
20984;SDS011;10651;47.552;7.606;2023-12-22T20:56:00;4.93;;;2.55;;
20984;SDS011;10651;47.552;7.606;2023-12-22T20:58:26;3.33;;;1.95;;
20984;SDS011;10651;47.552;7.606;2023-12-22T21:00:53;5.32;;;2.40;;
20984;SDS011;10651;47.552;7.606;2023-12-22T21:03:19;3.28;;;2.22;;
20984;SDS011;10651;47.552;7.606;2023-12-22T21:05:45;3.30;;;2.85;;
20984;SDS011;10651;47.552;7.606;2023-12-22T21:08:10;5.97;;;2.40;;
20984;SDS011;10651;47.552;7.606;2023-12-22T21:10:36;4.97;;;2.40;;
20984;SDS011;10651;47.552;7.606;2023-12-22T21:13:03;4.43;;;2.95;;
20984;SDS011;10651;47.552;7.606;2023-12-22T21:15:29;3.17;;;2.13;;
20984;SDS011;10651;47.552;7.606;2023-12-22T21:17:55;2.40;;;2.15;;
20984;SDS011;10651;47.552;7.606;2023-12-22T21:20:21;3.72;;;2.38;;
20984;SDS011;10651;47.552;7.606;2023-12-22T21:22:47;2.25;;;2.13;;